createdAt,value
2018-06-21T00:01:18.734Z,12.67
2018-06-21T00:03:47.484Z,14.30
2018-06-21T00:06:16.308Z,16.73
2018-06-21T00:08:45.117Z,14.57
2018-06-21T00:11:13.833Z,15.13
2018-06-21T00:13:42.575Z,15.33
2018-06-21T00:16:11.321Z,11.87
2018-06-21T00:18:40.125Z,10.10
2018-06-21T00:21:09.675Z,10.30
2018-06-21T00:23:38.370Z,11.20
2018-06-21T00:26:07.174Z,13.67
2018-06-21T00:28:35.909Z,13.30
2018-06-21T00:31:04.698Z,12.43
2018-06-21T00:33:33.450Z,12.47
2018-06-21T00:36:02.234Z,13.93
2018-06-21T00:38:30.972Z,11.80
2018-06-21T00:40:59.752Z,13.90
2018-06-21T00:43:28.499Z,12.00
2018-06-21T00:45:57.321Z,14.20
2018-06-21T00:48:26.107Z,12.13
2018-06-21T00:50:54.866Z,12.60
2018-06-21T00:53:23.609Z,11.73
2018-06-21T00:56:03.475Z,12.47
2018-06-21T00:58:32.877Z,11.60
2018-06-21T01:01:01.623Z,12.57
2018-06-21T01:03:30.444Z,12.53
2018-06-21T01:05:59.233Z,12.70
2018-06-21T01:08:27.968Z,15.43
2018-06-21T01:10:56.756Z,14.17
2018-06-21T01:13:25.498Z,14.03
2018-06-21T01:15:54.250Z,12.70
2018-06-21T01:18:23.006Z,15.77
2018-06-21T01:20:51.788Z,14.13
2018-06-21T01:23:20.511Z,15.33
2018-06-21T01:25:49.322Z,17.73
2018-06-21T01:28:18.063Z,17.27
2018-06-21T01:30:46.884Z,19.10
2018-06-21T01:33:15.633Z,14.97
2018-06-21T01:35:44.419Z,14.90
2018-06-21T01:38:13.192Z,18.67
2018-06-21T01:40:41.998Z,20.50
2018-06-21T01:43:10.742Z,14.30
2018-06-21T01:45:39.527Z,14.93
2018-06-21T01:48:08.515Z,16.70
2018-06-21T01:50:37.259Z,11.90
2018-06-21T01:53:06.451Z,11.57
2018-06-21T01:55:35.211Z,12.87
2018-06-21T01:58:04.035Z,11.87
2018-06-21T02:00:32.827Z,12.57
2018-06-21T02:03:01.826Z,19.00
2018-06-21T02:05:30.573Z,16.00
2018-06-21T02:07:59.381Z,17.40
2018-06-21T02:10:28.274Z,16.77
2018-06-21T02:12:57.009Z,13.17
2018-06-21T02:15:25.840Z,14.77
2018-06-21T02:17:55.471Z,14.23
2018-06-21T02:20:24.216Z,13.23
2018-06-21T02:22:52.978Z,12.97
2018-06-21T02:25:21.753Z,13.07
2018-06-21T02:27:50.526Z,12.83
2018-06-21T02:30:19.330Z,14.07
2018-06-21T02:32:48.067Z,13.17
2018-06-21T02:35:16.815Z,14.37
2018-06-21T02:37:45.654Z,16.80
2018-06-21T02:40:14.420Z,16.80
2018-06-21T02:42:43.155Z,13.37
2018-06-21T02:45:11.927Z,13.87
2018-06-21T02:47:40.720Z,13.40
2018-06-21T02:50:09.449Z,13.37
2018-06-21T02:52:38.197Z,14.50
2018-06-21T02:55:07.374Z,14.07
2018-06-21T02:57:36.142Z,20.40
2018-06-21T03:00:08.102Z,17.13
2018-06-21T03:02:36.888Z,13.53
2018-06-21T03:05:05.750Z,13.40
2018-06-21T03:07:34.572Z,21.67
2018-06-21T03:10:04.087Z,12.93
2018-06-21T03:12:32.884Z,14.80
2018-06-21T03:15:01.604Z,15.10
2018-06-21T03:17:30.332Z,13.20
2018-06-21T03:19:59.058Z,12.13
2018-06-21T03:22:27.798Z,12.07
2018-06-21T03:24:56.579Z,16.50
2018-06-21T03:27:25.934Z,13.77
2018-06-21T03:29:54.712Z,15.33
2018-06-21T03:32:23.484Z,13.47
2018-06-21T03:34:52.194Z,14.13
2018-06-21T03:37:20.977Z,15.13
2018-06-21T03:39:49.707Z,13.00
2018-06-21T03:42:18.431Z,19.03
2018-06-21T03:44:47.156Z,18.73
2018-06-21T03:47:15.938Z,15.73
2018-06-21T03:49:44.705Z,18.10
2018-06-21T03:52:13.539Z,21.40
2018-06-21T03:54:42.477Z,20.20
2018-06-21T03:57:11.231Z,23.10
2018-06-21T03:59:39.971Z,19.73
2018-06-21T04:02:08.743Z,18.43
2018-06-21T04:04:37.478Z,26.37
2018-06-21T04:07:06.311Z,18.77
2018-06-21T04:09:35.097Z,19.27
2018-06-21T04:12:03.869Z,18.83
2018-06-21T04:14:32.673Z,18.83
2018-06-21T04:17:01.427Z,24.43
2018-06-21T04:19:30.319Z,17.97
2018-06-21T04:21:59.105Z,18.97
2018-06-21T04:24:28.171Z,22.40
2018-06-21T04:26:56.956Z,24.70
2018-06-21T04:29:25.758Z,22.33
2018-06-21T04:31:54.712Z,23.20
2018-06-21T04:34:23.502Z,21.10
2018-06-21T04:36:52.249Z,21.57
2018-06-21T04:39:20.982Z,21.00
2018-06-21T04:41:49.763Z,23.27
2018-06-21T04:44:18.511Z,29.73
2018-06-21T04:46:47.312Z,28.27
2018-06-21T04:49:16.158Z,25.03
2018-06-21T04:51:44.951Z,28.10
2018-06-21T04:54:13.718Z,26.87
2018-06-21T04:56:42.442Z,21.73
2018-06-21T04:59:11.191Z,23.10
2018-06-21T05:01:39.929Z,34.03
2018-06-21T05:04:08.680Z,23.10
2018-06-21T05:06:37.505Z,27.67
2018-06-21T05:09:10.531Z,30.17
2018-06-21T05:11:39.263Z,24.87
2018-06-21T05:14:08.439Z,21.77
2018-06-21T05:16:37.192Z,19.63
2018-06-21T05:19:05.956Z,20.73
2018-06-21T05:21:34.848Z,29.13
2018-06-21T05:24:03.567Z,27.10
2018-06-21T05:26:32.319Z,22.97
2018-06-21T05:29:01.519Z,23.07
2018-06-21T05:31:30.510Z,27.30
2018-06-21T05:33:59.351Z,21.83
2018-06-21T05:36:28.119Z,19.47
2018-06-21T05:38:56.911Z,19.00
2018-06-21T05:41:25.754Z,22.20
2018-06-21T05:43:54.511Z,20.60
2018-06-21T05:46:23.285Z,22.53
2018-06-21T05:48:52.135Z,25.70
2018-06-21T05:51:21.116Z,29.10
2018-06-21T05:53:49.878Z,24.17
2018-06-21T05:56:19.174Z,22.63
2018-06-21T05:58:47.941Z,23.40
2018-06-21T06:01:16.783Z,19.87
2018-06-21T06:03:46.943Z,28.20
2018-06-21T06:06:15.791Z,20.37
2018-06-21T06:08:44.534Z,24.97
2018-06-21T06:11:13.331Z,26.07
2018-06-21T06:13:42.185Z,20.87
2018-06-21T06:16:10.947Z,24.20
2018-06-21T06:18:39.765Z,23.63
2018-06-21T06:21:08.531Z,30.17
2018-06-21T06:23:37.279Z,29.57
2018-06-21T06:26:06.043Z,26.13
2018-06-21T06:28:35.152Z,31.10
2018-06-21T06:31:04.147Z,27.33
2018-06-21T06:33:32.928Z,29.87
2018-06-21T06:36:01.675Z,24.50
2018-06-21T06:38:30.455Z,29.33
2018-06-21T06:40:59.196Z,24.93
2018-06-21T06:43:28.262Z,27.30
2018-06-21T06:45:57.055Z,32.43
2018-06-21T06:48:26.532Z,27.57
2018-06-21T06:50:55.971Z,26.00
2018-06-21T06:53:24.760Z,28.13
2018-06-21T06:55:53.708Z,27.43
2018-06-21T06:58:22.429Z,23.63
2018-06-21T07:00:51.258Z,29.40
2018-06-21T07:03:20.078Z,42.03
2018-06-21T07:05:48.854Z,23.83
2018-06-21T07:08:19.578Z,24.70
2018-06-21T07:10:48.499Z,19.60
2018-06-21T07:13:17.250Z,16.93
2018-06-21T07:15:46.085Z,18.57
2018-06-21T07:18:14.860Z,26.90
2018-06-21T07:20:43.715Z,16.40
2018-06-21T07:23:12.478Z,20.87
2018-06-21T07:25:41.296Z,20.77
2018-06-21T07:28:10.007Z,18.23
2018-06-21T07:30:38.823Z,21.97
2018-06-21T07:33:07.559Z,18.03
2018-06-21T07:35:36.470Z,22.47
2018-06-21T07:38:05.387Z,19.83
2018-06-21T07:40:34.128Z,15.23
2018-06-21T07:43:02.905Z,20.00
2018-06-21T07:45:31.703Z,21.70
2018-06-21T07:48:00.543Z,19.37
2018-06-21T07:50:29.512Z,21.70
2018-06-21T07:52:58.319Z,12.30
2018-06-21T07:55:27.160Z,13.03
2018-06-21T07:57:55.944Z,17.03
2018-06-21T08:00:31.447Z,9.00
2018-06-21T08:03:00.246Z,9.33
2018-06-21T08:05:29.000Z,9.97
2018-06-21T08:07:57.749Z,10.07
2018-06-21T08:10:26.510Z,13.77
2018-06-21T08:12:55.318Z,12.80
2018-06-21T08:15:24.286Z,13.07
2018-06-21T08:17:53.047Z,11.10
2018-06-21T08:20:21.932Z,12.00
2018-06-21T08:22:50.922Z,12.13
2018-06-21T08:25:19.737Z,11.13
2018-06-21T08:27:55.109Z,16.03
2018-06-21T08:30:23.949Z,21.57
2018-06-21T08:32:52.713Z,12.53
2018-06-21T08:35:21.464Z,15.20
2018-06-21T08:37:50.235Z,13.73
2018-06-21T08:40:19.111Z,10.23
2018-06-21T08:42:52.550Z,9.00
2018-06-21T08:45:21.312Z,15.60
2018-06-21T08:47:50.083Z,9.83
2018-06-21T08:50:18.878Z,9.40
2018-06-21T08:52:47.716Z,19.47
2018-06-21T08:55:16.511Z,12.67
2018-06-21T08:57:45.281Z,10.77
2018-06-21T09:00:14.400Z,11.47
2018-06-21T09:02:43.130Z,6.93
2018-06-21T09:05:11.899Z,6.90
2018-06-21T09:07:40.654Z,7.57
2018-06-21T09:10:09.722Z,13.93
2018-06-21T09:12:39.214Z,7.90
2018-06-21T09:15:09.743Z,7.67
2018-06-21T09:17:38.506Z,7.30
2018-06-21T09:20:07.267Z,9.73
2018-06-21T09:22:36.065Z,7.27
2018-06-21T09:25:04.859Z,8.23
2018-06-21T09:27:33.654Z,7.50
2018-06-21T09:30:03.907Z,9.37
2018-06-21T09:32:39.402Z,7.57
2018-06-21T09:35:08.161Z,7.70
2018-06-21T09:37:42.047Z,9.30
2018-06-21T09:40:16.134Z,7.27
2018-06-21T09:42:50.027Z,9.87
2018-06-21T09:45:23.871Z,7.60
2018-06-21T09:47:57.793Z,9.27
2018-06-21T09:50:26.614Z,11.50
2018-06-21T09:52:55.380Z,7.50
2018-06-21T09:55:24.125Z,11.27
2018-06-21T09:57:53.740Z,9.70
2018-06-21T10:00:27.804Z,8.30
2018-06-21T10:02:56.569Z,8.10
2018-06-21T10:05:25.372Z,7.27
2018-06-21T10:07:54.180Z,7.87
2018-06-21T10:10:22.975Z,11.60
2018-06-21T10:12:51.752Z,7.63
2018-06-21T10:15:20.529Z,8.97
2018-06-21T10:17:49.332Z,7.63
2018-06-21T10:20:18.074Z,12.37
2018-06-21T10:22:46.839Z,8.27
2018-06-21T10:25:22.358Z,9.50
2018-06-21T10:27:51.105Z,9.43
2018-06-21T10:30:19.919Z,12.53
2018-06-21T10:32:48.692Z,10.90
2018-06-21T10:35:17.469Z,10.77
2018-06-21T10:37:46.192Z,8.43
2018-06-21T10:40:15.070Z,12.63
2018-06-21T10:42:43.784Z,8.17
2018-06-21T10:45:12.507Z,8.57
2018-06-21T10:47:41.231Z,7.47
2018-06-21T10:50:10.007Z,7.00
2018-06-21T10:52:38.790Z,10.53
2018-06-21T10:55:07.542Z,8.47
2018-06-21T10:57:36.813Z,7.30
2018-06-21T11:00:06.589Z,7.80
2018-06-21T11:02:35.365Z,11.23
2018-06-21T11:05:04.683Z,8.27
2018-06-21T11:07:33.420Z,12.23
2018-06-21T11:10:02.300Z,8.43
2018-06-21T11:12:31.092Z,14.27
2018-06-21T11:14:59.867Z,13.47
2018-06-21T11:17:28.623Z,12.57
2018-06-21T11:19:57.386Z,13.00
2018-06-21T11:22:26.200Z,15.87
2018-06-21T11:24:55.770Z,12.77
2018-06-21T11:27:24.556Z,16.17
2018-06-21T11:29:53.437Z,14.27
2018-06-21T11:32:22.202Z,12.90
2018-06-21T11:34:51.042Z,18.23
2018-06-21T11:37:26.365Z,16.20
2018-06-21T11:39:55.179Z,18.30
2018-06-21T11:42:23.978Z,18.70
2018-06-21T11:44:52.765Z,10.33
2018-06-21T11:47:21.550Z,9.57
2018-06-21T11:49:50.320Z,20.50
2018-06-21T11:52:19.103Z,12.07
2018-06-21T11:54:47.851Z,15.27
2018-06-21T11:57:16.610Z,13.47
2018-06-21T11:59:45.398Z,11.93
2018-06-21T12:02:14.222Z,9.33
2018-06-21T12:04:43.739Z,20.93
2018-06-21T12:07:12.762Z,17.57
2018-06-21T12:09:41.528Z,12.50
2018-06-21T12:12:10.350Z,12.40
2018-06-21T12:14:39.650Z,17.47
2018-06-21T12:17:09.209Z,16.10
2018-06-21T12:19:37.931Z,18.40
2018-06-21T12:22:06.839Z,15.87
2018-06-21T12:24:35.652Z,14.27
2018-06-21T12:27:05.115Z,14.53
2018-06-21T12:29:34.880Z,8.77
2018-06-21T12:32:03.625Z,9.57
2018-06-21T12:34:32.511Z,16.57
2018-06-21T12:37:01.256Z,11.30
2018-06-21T12:39:30.035Z,8.30
2018-06-21T12:41:58.811Z,7.97
2018-06-21T12:44:27.507Z,10.47
2018-06-21T12:46:56.202Z,9.37
2018-06-21T12:49:25.006Z,38.50
2018-06-21T12:51:53.773Z,26.10
2018-06-21T12:54:22.548Z,10.93
2018-06-21T12:56:51.288Z,8.13
2018-06-21T12:59:20.748Z,12.43
2018-06-21T13:01:49.547Z,13.60
2018-06-21T13:04:18.320Z,8.40
2018-06-21T13:06:47.062Z,7.53
2018-06-21T13:09:27.735Z,9.33
2018-06-21T13:12:35.834Z,13.00
2018-06-21T13:15:05.697Z,10.33
2018-06-21T13:17:34.480Z,9.27
2018-06-21T13:20:04.275Z,13.23
2018-06-21T13:22:33.040Z,7.97
2018-06-21T13:25:02.191Z,9.80
2018-06-21T13:27:30.852Z,9.57
2018-06-21T13:29:59.569Z,10.93
2018-06-21T13:32:28.253Z,9.13
2018-06-21T13:34:56.970Z,13.87
2018-06-21T13:37:27.076Z,9.80
2018-06-21T13:39:56.201Z,10.60
2018-06-21T13:42:24.917Z,9.87
2018-06-21T13:44:53.684Z,12.53
2018-06-21T13:47:22.450Z,12.20
2018-06-21T13:49:51.242Z,10.23
2018-06-21T13:52:20.025Z,10.47
2018-06-21T13:54:48.890Z,9.27
2018-06-21T13:57:17.768Z,13.37
2018-06-21T13:59:46.781Z,10.90
2018-06-21T14:02:15.697Z,11.23
2018-06-21T14:04:45.248Z,10.90
2018-06-21T14:07:13.966Z,15.60
2018-06-21T14:09:42.694Z,14.40
2018-06-21T14:12:11.796Z,10.70
2018-06-21T14:14:40.593Z,11.40
2018-06-21T14:17:09.470Z,9.73
2018-06-21T14:19:38.185Z,7.93
2018-06-21T14:22:07.019Z,7.57
2018-06-21T14:24:35.858Z,11.63
2018-06-21T14:27:04.664Z,8.60
2018-06-21T14:29:33.457Z,10.37
2018-06-21T14:32:02.246Z,9.10
2018-06-21T14:34:31.009Z,9.23
2018-06-21T14:37:00.028Z,8.07
2018-06-21T14:39:28.718Z,7.53
2018-06-21T14:41:57.487Z,7.20
2018-06-21T14:44:26.304Z,8.40
2018-06-21T14:46:55.908Z,7.40
2018-06-21T14:49:24.751Z,7.83
2018-06-21T14:51:53.532Z,8.73
2018-06-21T14:54:22.291Z,9.60
2018-06-21T14:56:51.083Z,7.23
2018-06-21T14:59:19.930Z,7.30
2018-06-21T15:01:48.818Z,9.03
2018-06-21T15:04:17.579Z,8.23
2018-06-21T15:06:46.367Z,7.87
2018-06-21T15:09:15.104Z,10.17
2018-06-21T15:11:43.880Z,9.17
2018-06-21T15:14:12.628Z,12.50
2018-06-21T15:16:41.399Z,8.70
2018-06-21T15:19:10.117Z,7.77
2018-06-21T15:21:38.855Z,9.63
2018-06-21T15:24:08.483Z,9.80
2018-06-21T15:26:37.207Z,8.07
2018-06-21T15:29:05.935Z,7.10
2018-06-21T15:31:34.937Z,7.80
2018-06-21T15:34:03.735Z,7.97
2018-06-21T15:36:32.482Z,10.77
2018-06-21T15:39:02.301Z,12.93
2018-06-21T15:41:31.065Z,10.33
2018-06-21T15:43:59.830Z,11.50
2018-06-21T15:46:29.210Z,10.10
2018-06-21T15:48:58.019Z,14.57
2018-06-21T15:51:26.817Z,12.97
2018-06-21T15:53:55.531Z,10.43
2018-06-21T15:56:24.328Z,10.27
2018-06-21T15:58:53.258Z,13.73
2018-06-21T16:01:22.033Z,17.63
2018-06-21T16:03:50.850Z,14.87
2018-06-21T16:06:19.578Z,11.53
2018-06-21T16:08:48.538Z,11.00
2018-06-21T16:11:17.460Z,9.53
2018-06-21T16:13:46.222Z,9.83
2018-06-21T16:16:14.937Z,8.37
2018-06-21T16:18:43.688Z,13.30
2018-06-21T16:21:19.002Z,9.83
2018-06-21T16:23:47.771Z,13.83
2018-06-21T16:26:16.600Z,14.20
2018-06-21T16:28:45.335Z,8.93
2018-06-21T16:31:14.075Z,15.43
2018-06-21T16:33:42.886Z,18.70
2018-06-21T16:36:11.776Z,14.50
2018-06-21T16:38:41.559Z,11.97
2018-06-21T16:41:10.416Z,9.60
2018-06-21T16:43:39.157Z,10.87
2018-06-21T16:46:08.008Z,12.20
2018-06-21T16:48:36.731Z,8.07
2018-06-21T16:51:05.763Z,10.17
2018-06-21T16:53:34.593Z,7.80
2018-06-21T16:56:03.334Z,10.63
2018-06-21T16:58:32.036Z,8.60
2018-06-21T17:01:00.750Z,10.70
2018-06-21T17:03:29.836Z,12.70
2018-06-21T17:05:58.859Z,13.70
2018-06-21T17:08:27.600Z,17.17
2018-06-21T17:10:56.362Z,19.17
2018-06-21T17:13:25.091Z,18.93
2018-06-21T17:15:53.832Z,17.47
2018-06-21T17:18:23.120Z,17.83
2018-06-21T17:20:52.082Z,16.30
2018-06-21T17:23:20.804Z,18.87
2018-06-21T17:25:49.536Z,11.27
2018-06-21T17:28:18.265Z,13.63
2018-06-21T17:30:47.137Z,15.23
2018-06-21T17:33:15.962Z,11.33
2018-06-21T17:35:44.714Z,12.63
2018-06-21T17:38:13.458Z,11.60
2018-06-21T17:40:42.198Z,15.33
2018-06-21T17:43:13.345Z,13.03
2018-06-21T17:45:42.387Z,23.07
2018-06-21T17:48:11.192Z,13.53
2018-06-21T17:50:40.056Z,10.50
2018-06-21T17:53:08.776Z,14.60
2018-06-21T17:55:37.510Z,13.27
2018-06-21T17:58:06.353Z,15.47
2018-06-21T18:00:35.267Z,33.80
2018-06-21T18:03:04.032Z,12.77
2018-06-21T18:05:32.942Z,15.30
2018-06-21T18:08:01.839Z,12.27
2018-06-21T18:10:30.760Z,16.10
2018-06-21T18:13:06.218Z,12.40
2018-06-21T18:15:34.988Z,16.50
2018-06-21T18:18:03.824Z,14.70
2018-06-21T18:20:32.614Z,16.67
2018-06-21T18:23:01.617Z,19.73
2018-06-21T18:25:30.348Z,14.13
2018-06-21T18:28:00.146Z,19.90
2018-06-21T18:30:28.941Z,20.53
2018-06-21T18:32:57.789Z,15.93
2018-06-21T18:35:26.574Z,16.30
2018-06-21T18:37:55.528Z,13.03
2018-06-21T18:40:24.219Z,20.67
2018-06-21T18:42:53.029Z,23.30
2018-06-21T18:45:21.778Z,18.97
2018-06-21T18:47:50.560Z,20.43
2018-06-21T18:50:19.971Z,34.33
2018-06-21T18:52:48.866Z,34.20
2018-06-21T18:55:17.719Z,33.03
2018-06-21T18:57:47.148Z,26.77
2018-06-21T19:00:17.140Z,26.30
2018-06-21T19:02:46.468Z,23.27
2018-06-21T19:05:16.127Z,25.97
2018-06-21T19:07:44.866Z,19.50
2018-06-21T19:10:18.809Z,27.60
2018-06-21T19:12:47.580Z,28.90
2018-06-21T19:15:16.378Z,21.97
2018-06-21T19:17:45.108Z,16.57
2018-06-21T19:20:13.841Z,19.00
2018-06-21T19:22:42.669Z,18.77
2018-06-21T19:25:11.429Z,17.83
2018-06-21T19:27:40.890Z,20.50
2018-06-21T19:30:09.779Z,21.43
2018-06-21T19:32:41.433Z,17.83
2018-06-21T19:35:10.178Z,18.30
2018-06-21T19:37:38.982Z,20.83
2018-06-21T19:40:07.782Z,24.60
2018-06-21T19:42:36.532Z,17.83
2018-06-21T19:45:06.118Z,17.50
2018-06-21T19:47:34.862Z,21.17
2018-06-21T19:50:03.643Z,21.03
2018-06-21T19:52:32.384Z,22.97
2018-06-21T19:55:01.161Z,21.03
2018-06-21T19:57:30.251Z,21.67
2018-06-21T19:59:58.995Z,22.80
2018-06-21T20:03:03.549Z,22.43
2018-06-21T20:05:32.743Z,25.07
2018-06-21T20:08:01.440Z,17.57
2018-06-21T20:10:30.214Z,21.87
2018-06-21T20:12:58.994Z,19.70
2018-06-21T20:15:27.716Z,24.80
2018-06-21T20:17:56.496Z,14.83
2018-06-21T20:20:35.935Z,18.03
2018-06-21T20:23:05.093Z,17.17
2018-06-21T20:25:35.464Z,15.90
2018-06-21T20:28:04.211Z,16.33
2018-06-21T20:30:33.019Z,14.13
2018-06-21T20:33:01.967Z,17.17
2018-06-21T20:35:31.122Z,20.07
2018-06-21T20:37:59.912Z,21.00
2018-06-21T20:40:28.631Z,17.27
2018-06-21T20:42:57.399Z,13.33
2018-06-21T20:45:26.115Z,21.70
2018-06-21T20:47:54.992Z,18.47
2018-06-21T20:50:23.794Z,14.67
2018-06-21T20:52:52.686Z,21.17
2018-06-21T20:55:21.416Z,17.80
2018-06-21T20:57:50.203Z,17.27
2018-06-21T21:00:19.010Z,12.90
2018-06-21T21:02:47.781Z,20.23
2018-06-21T21:05:17.566Z,17.07
2018-06-21T21:07:48.102Z,15.90
2018-06-21T21:10:23.044Z,22.73
2018-06-21T21:12:51.740Z,14.83
2018-06-21T21:15:20.506Z,14.43
2018-06-21T21:17:49.266Z,16.47
2018-06-21T21:20:17.934Z,14.03
2018-06-21T21:22:46.680Z,20.40
2018-06-21T21:25:15.436Z,16.63
2018-06-21T21:27:44.554Z,18.87
2018-06-21T21:30:13.422Z,15.57
2018-06-21T21:32:42.261Z,13.90
2018-06-21T21:35:11.011Z,15.73
2018-06-21T21:37:39.782Z,15.37
2018-06-21T21:40:08.715Z,16.17
2018-06-21T21:42:39.032Z,17.53
2018-06-21T21:45:07.919Z,19.43
2018-06-21T21:47:36.699Z,17.03
2018-06-21T21:50:05.454Z,18.83
2018-06-21T21:52:34.293Z,15.00
2018-06-21T21:55:02.998Z,19.77
2018-06-21T21:57:31.776Z,14.97
2018-06-21T22:00:00.560Z,16.00
2018-06-21T22:02:29.266Z,17.10
2018-06-21T22:04:57.998Z,14.47
2018-06-21T22:07:26.703Z,17.73
2018-06-21T22:09:55.448Z,18.77
2018-06-21T22:12:24.216Z,13.30
2018-06-21T22:14:53.011Z,16.33
2018-06-21T22:17:21.724Z,15.53
2018-06-21T22:19:50.488Z,13.63
2018-06-21T22:22:19.258Z,20.93
2018-06-21T22:24:48.083Z,13.90
2018-06-21T22:27:16.805Z,14.50
2018-06-21T22:29:45.554Z,13.10
2018-06-21T22:32:14.264Z,14.10
2018-06-21T22:34:43.008Z,13.87
2018-06-21T22:37:11.734Z,14.77
2018-06-21T22:39:40.464Z,17.40
2018-06-21T22:42:09.207Z,13.00
2018-06-21T22:44:37.985Z,14.43
2018-06-21T22:47:06.835Z,13.60
2018-06-21T22:49:35.564Z,12.83
2018-06-21T22:52:04.306Z,13.47
2018-06-21T22:54:33.031Z,12.53
2018-06-21T22:57:01.754Z,15.87
2018-06-21T22:59:30.446Z,13.00
2018-06-21T23:01:59.254Z,14.03
2018-06-21T23:04:27.983Z,14.83
2018-06-21T23:06:56.779Z,13.40
2018-06-21T23:09:28.507Z,13.60
2018-06-21T23:11:57.290Z,12.37
2018-06-21T23:14:26.025Z,13.47
2018-06-21T23:16:57.018Z,13.07
2018-06-21T23:19:28.860Z,17.07
2018-06-21T23:21:57.985Z,15.57
2018-06-21T23:24:27.466Z,15.53
2018-06-21T23:26:56.248Z,12.97
2018-06-21T23:29:24.998Z,12.17
2018-06-21T23:31:53.862Z,13.80
2018-06-21T23:34:23.041Z,11.00
2018-06-21T23:36:52.039Z,13.33
2018-06-21T23:39:20.939Z,11.47
2018-06-21T23:41:49.721Z,17.13
2018-06-21T23:44:18.508Z,16.00
2018-06-21T23:46:47.299Z,12.70
2018-06-21T23:49:16.057Z,11.63
2018-06-21T23:51:44.832Z,12.77
2018-06-21T23:54:14.698Z,16.00
2018-06-21T23:56:44.294Z,14.00
2018-06-21T23:59:13.009Z,14.50
